TRA27L EHEH-LPPT
Flight info
| Callsign | TRA27L |
|---|---|
| Flight time | N/A |
| Altitude | 39000 |
| Route | WOODY5K WOODY N872 CIV DCT KOVIN DCT NIDUV DCT KIHVI DCT PON DCT DITAL DCT GODIX DCT DIDAK DCT KURIS DCT TERPO DCT ERIGA DCT FUJTI DCT ATLEN DCT ABUPI DCT XAMAX XAMAX2A |
| Aircraft | B738/M-SDE2E3FGHIJ1RWXYZ/LB1 |
Departure
| Time | 2026-05-04 16:09 |
|---|---|
| Airport | Eindhoven Airport (EHEH) |
Arrival
| Time | N/A |
|---|---|
| Airport | Lisbon Humberto Delgado Airport (LPPT) |
| Time | Latitude | Longitude | Altitude | Speed | Heading |
|---|---|---|---|---|---|
| 2026-05-04 15:51 | 51.45652 | 5.38814 | 65 ft | 0 kts | 125° |
| 2026-05-04 15:52 | 51.45652 | 5.38813 | 65 ft | 0 kts | 125° |
| 2026-05-04 15:59 | 51.45653 | 5.38813 | 65 ft | 0 kts | 125° |
| 2026-05-04 16:01 | 51.45652 | 5.38812 | 63 ft | 1 kts | 120° |
| 2026-05-04 16:01 | 51.45659 | 5.38793 | 67 ft | 3 kts | 118° |
| 2026-05-04 16:02 | 51.45667 | 5.38765 | 67 ft | 3 kts | 91° |
| 2026-05-04 16:02 | 51.45673 | 5.38757 | 64 ft | 3 kts | 15° |
| 2026-05-04 16:02 | 51.45712 | 5.38754 | 69 ft | 3 kts | 6° |
| 2026-05-04 16:03 | 51.45730 | 5.38764 | 69 ft | 2 kts | 25° |
| 2026-05-04 16:03 | 51.45730 | 5.38762 | 69 ft | 3 kts | 5° |
| 2026-05-04 16:03 | 51.45740 | 5.38755 | 73 ft | 3 kts | 344° |
| 2026-05-04 16:03 | 51.45726 | 5.38757 | 69 ft | 2 kts | 31° |
| 2026-05-04 16:04 | 51.45724 | 5.38756 | 71 ft | 2 kts | 34° |
| 2026-05-04 16:05 | 51.45726 | 5.38758 | 66 ft | 3 kts | 34° |
| 2026-05-04 16:06 | 51.45774 | 5.38809 | 65 ft | 11 kts | 34° |
| 2026-05-04 16:06 | 51.45951 | 5.38988 | 73 ft | 13 kts | 354° |
| 2026-05-04 16:07 | 51.46019 | 5.38871 | 75 ft | 5 kts | 304° |
| 2026-05-04 16:07 | 51.46057 | 5.38786 | 71 ft | 12 kts | 306° |
| 2026-05-04 16:08 | 51.46085 | 5.38660 | 78 ft | 12 kts | 240° |
| 2026-05-04 16:08 | 51.45662 | 5.38176 | 73 ft | 110 kts | 214° |
| 2026-05-04 16:09 | 51.43853 | 5.36004 | 1081 ft | 182 kts | 220° |
| 2026-05-04 16:09 | 51.41778 | 5.33089 | 2467 ft | 220 kts | 222° |
| 2026-05-04 16:10 | 51.40130 | 5.29021 | 4123 ft | 228 kts | 270° |
| 2026-05-04 16:11 | 51.43279 | 5.23796 | 6763 ft | 239 kts | 338° |
| 2026-05-04 16:11 | 51.44845 | 5.22807 | 7552 ft | 245 kts | 338° |
| 2026-05-04 16:12 | 51.49634 | 5.19540 | 10224 ft | 256 kts | 320° |
| 2026-05-04 16:12 | 51.51254 | 5.10790 | 11233 ft | 319 kts | 258° |
| 2026-05-04 16:13 | 51.50194 | 5.03453 | 12106 ft | 347 kts | 256° |
| 2026-05-04 16:13 | 51.49050 | 4.95837 | 13671 ft | 355 kts | 256° |
| 2026-05-04 16:14 | 51.47927 | 4.88044 | 15044 ft | 362 kts | 257° |
| 2026-05-04 16:14 | 51.46807 | 4.80119 | 16328 ft | 372 kts | 257° |
| 2026-05-04 16:15 | 51.45066 | 4.67792 | 18285 ft | 384 kts | 257° |
| 2026-05-04 16:16 | 51.43873 | 4.59396 | 19554 ft | 387 kts | 257° |
| 2026-05-04 16:16 | 51.42062 | 4.46734 | 21317 ft | 394 kts | 256° |
| 2026-05-04 16:17 | 51.40319 | 4.38431 | 22421 ft | 398 kts | 234° |
| 2026-05-04 16:18 | 51.33492 | 4.31169 | 24063 ft | 402 kts | 204° |
| 2026-05-04 16:18 | 51.30929 | 4.29341 | 24511 ft | 404 kts | 204° |
| 2026-05-04 16:19 | 51.23275 | 4.23555 | 25839 ft | 409 kts | 205° |
| 2026-05-04 16:19 | 51.18127 | 4.19633 | 26708 ft | 411 kts | 205° |
| 2026-05-04 16:20 | 51.10081 | 4.14750 | 27953 ft | 415 kts | 198° |
| 2026-05-04 16:20 | 51.04580 | 4.11850 | 28727 ft | 418 kts | 198° |
| 2026-05-04 16:21 | 50.96283 | 4.07358 | 29821 ft | 422 kts | 198° |
| 2026-05-04 16:22 | 50.90711 | 4.04326 | 30449 ft | 424 kts | 198° |
| 2026-05-04 16:22 | 50.82555 | 3.99481 | 31752 ft | 416 kts | 202° |
| 2026-05-04 16:23 | 50.74562 | 3.94257 | 32803 ft | 413 kts | 202° |
| 2026-05-04 16:24 | 50.63999 | 3.87498 | 34204 ft | 408 kts | 202° |
| 2026-05-04 16:25 | 50.58713 | 3.84136 | 34583 ft | 411 kts | 202° |
| 2026-05-04 16:26 | 50.48196 | 3.77064 | 35450 ft | 414 kts | 204° |
| 2026-05-04 16:26 | 50.40264 | 3.71622 | 36067 ft | 416 kts | 204° |
| 2026-05-04 16:27 | 50.34950 | 3.68009 | 36449 ft | 417 kts | 204° |
| 2026-05-04 16:28 | 50.27011 | 3.62331 | 37008 ft | 419 kts | 211° |
| 2026-05-04 16:28 | 50.20058 | 3.54074 | 37498 ft | 422 kts | 230° |
| 2026-05-04 16:29 | 50.12674 | 3.39772 | 38194 ft | 424 kts | 230° |
| 2026-05-04 16:30 | 50.07079 | 3.29097 | 38687 ft | 425 kts | 230° |
| 2026-05-04 16:31 | 50.03330 | 3.21993 | 38914 ft | 425 kts | 230° |
| 2026-05-04 16:32 | 49.91924 | 3.00503 | 38943 ft | 432 kts | 230° |
| 2026-05-04 16:33 | 49.84279 | 2.86196 | 38944 ft | 432 kts | 230° |
| 2026-05-04 16:34 | 49.78520 | 2.75469 | 38938 ft | 431 kts | 230° |
| 2026-05-04 16:35 | 49.67033 | 2.54205 | 38938 ft | 427 kts | 230° |
| 2026-05-04 16:36 | 49.61314 | 2.43681 | 38937 ft | 426 kts | 229° |
| 2026-05-04 16:37 | 49.55601 | 2.33211 | 38939 ft | 425 kts | 229° |
| 2026-05-04 16:38 | 49.47975 | 2.19301 | 38944 ft | 426 kts | 229° |
| 2026-05-04 16:39 | 49.38371 | 2.01885 | 38942 ft | 429 kts | 229° |
| 2026-05-04 16:40 | 49.30633 | 1.87937 | 38935 ft | 430 kts | 229° |
| 2026-05-04 16:41 | 49.20903 | 1.70503 | 38941 ft | 431 kts | 229° |
| 2026-05-04 16:43 | 49.11149 | 1.53141 | 38955 ft | 430 kts | 229° |
| 2026-05-04 16:43 | 49.05929 | 1.43896 | 38965 ft | 429 kts | 228° |
| 2026-05-04 16:45 | 48.94271 | 1.23366 | 38974 ft | 427 kts | 228° |
| 2026-05-04 16:46 | 48.84526 | 1.06325 | 38963 ft | 428 kts | 228° |
| 2026-05-04 16:47 | 48.76677 | 0.92674 | 38937 ft | 430 kts | 228° |
| 2026-05-04 16:48 | 48.69895 | 0.77743 | 38941 ft | 432 kts | 238° |
| 2026-05-04 16:49 | 48.63667 | 0.62156 | 38962 ft | 433 kts | 237° |
| 2026-05-04 16:50 | 48.57339 | 0.46644 | 38950 ft | 433 kts | 237° |
| 2026-05-04 16:51 | 48.52583 | 0.35047 | 38949 ft | 433 kts | 237° |
| 2026-05-04 16:52 | 48.46244 | 0.19665 | 38952 ft | 431 kts | 237° |
| 2026-05-04 16:53 | 48.41493 | 0.08189 | 38958 ft | 430 kts | 236° |
| 2026-05-04 16:54 | 48.35067 | -0.06934 | 38968 ft | 428 kts | 232° |
| 2026-05-04 16:55 | 48.24350 | -0.28269 | 38956 ft | 427 kts | 231° |
| 2026-05-04 16:56 | 48.15298 | -0.45956 | 38961 ft | 428 kts | 231° |
| 2026-05-04 16:57 | 48.09843 | -0.56575 | 38967 ft | 430 kts | 231° |
| 2026-05-04 16:58 | 48.03509 | -0.65968 | 38968 ft | 429 kts | 220° |
| 2026-05-04 16:58 | 48.01241 | -0.68870 | 38978 ft | 429 kts | 220° |
| 2026-05-04 17:00 | 47.87650 | -0.86476 | 38965 ft | 432 kts | 220° |
| 2026-05-04 17:01 | 47.76316 | -1.01212 | 38939 ft | 433 kts | 220° |
| 2026-05-04 17:02 | 47.67243 | -1.12939 | 38935 ft | 432 kts | 220° |
| 2026-05-04 17:03 | 47.60446 | -1.21688 | 38935 ft | 431 kts | 220° |
| 2026-05-04 17:03 | 47.53565 | -1.30215 | 38932 ft | 430 kts | 217° |
| 2026-05-04 17:04 | 47.44116 | -1.41039 | 38934 ft | 429 kts | 217° |
| 2026-05-04 17:05 | 47.34712 | -1.51909 | 38937 ft | 429 kts | 217° |
| 2026-05-04 17:06 | 47.27660 | -1.60057 | 38937 ft | 430 kts | 217° |
| 2026-05-04 17:07 | 47.21395 | -1.67271 | 38947 ft | 430 kts | 217° |
| 2026-05-04 17:07 | 47.15913 | -1.73564 | 38938 ft | 430 kts | 217° |
| 2026-05-04 17:08 | 47.08831 | -1.81670 | 38946 ft | 430 kts | 217° |
| 2026-05-04 17:09 | 47.04103 | -1.87065 | 38946 ft | 430 kts | 217° |
| 2026-05-04 17:09 | 46.99374 | -1.92449 | 38951 ft | 431 kts | 217° |
| 2026-05-04 17:10 | 46.87533 | -2.05876 | 38958 ft | 431 kts | 217° |
| 2026-05-04 17:11 | 46.82787 | -2.11236 | 38962 ft | 431 kts | 217° |
| 2026-05-04 17:12 | 46.75653 | -2.19270 | 38956 ft | 432 kts | 217° |
| 2026-05-04 17:13 | 46.63728 | -2.32638 | 38959 ft | 433 kts | 217° |
| 2026-05-04 17:14 | 46.54160 | -2.43310 | 38961 ft | 434 kts | 217° |
| 2026-05-04 17:15 | 46.46995 | -2.51269 | 38957 ft | 435 kts | 217° |
| 2026-05-04 17:16 | 46.37373 | -2.61915 | 38967 ft | 436 kts | 217° |
| 2026-05-04 17:17 | 46.27725 | -2.72541 | 38961 ft | 436 kts | 217° |
| 2026-05-04 17:18 | 46.18089 | -2.83106 | 38966 ft | 434 kts | 217° |
| 2026-05-04 17:19 | 46.08474 | -2.93601 | 38969 ft | 432 kts | 217° |
| 2026-05-04 17:20 | 45.98886 | -3.04019 | 38972 ft | 431 kts | 216° |
| 2026-05-04 17:20 | 45.91708 | -3.11789 | 38968 ft | 430 kts | 216° |
| 2026-05-04 17:21 | 45.82131 | -3.22115 | 38979 ft | 431 kts | 217° |
| 2026-05-04 17:22 | 45.77324 | -3.27280 | 38975 ft | 433 kts | 217° |
| 2026-05-04 17:23 | 45.67687 | -3.37603 | 38980 ft | 435 kts | 217° |
| 2026-05-04 17:24 | 45.60399 | -3.45378 | 38986 ft | 437 kts | 217° |
| 2026-05-04 17:25 | 45.50615 | -3.55777 | 38981 ft | 439 kts | 217° |
| 2026-05-04 17:26 | 45.40810 | -3.66152 | 38987 ft | 439 kts | 217° |
| 2026-05-04 17:27 | 45.28579 | -3.79029 | 38982 ft | 436 kts | 217° |